Main page
Satellite images 15-day forecastsClimateMarine weather Cyclones Lightning AirportsFAQ Newsletter About
Weather : Europe Africa North America South America Asia Australia-Oceania Others
Languages Contact

Istanbul Sabiha Gökçen, Turkey

latitude: 40-53-55N, longitude: 029-18-33E, elevation: 95 m


METAR: LTFJ 160420Z 04005KT 010V070 9999 SCT035 19/16 Q1012 NOSIG
short-TAF: out of date (34796 hours)
long-TAF: LTFJ 151640Z 1518/1618 03009KT 9999 SCT035 PROB30 TEMPO 1609/1613 -SHRA BKN030 BKN090

Time: 07:54 (04:54 UTC)

Current weather observation

The report was made 34 minutes ago, at 04:20 UTC  
Wind 05 kt from the Northeast, varying between North and East/Northeast
Temperature 19°C
Humidity 83%
Pressure 1012 hPa
Visibility 10 km or more
Scattered clouds at a height of 3500 ft

Change units

Forecast

The report was made 11 hours and 51 minutes ago, at 17:03 UTC  
Forecast valid from 15 at 18 UTC to 16 at 18 UTC
Wind 09 kt from the North/Northeast
Visibility 10 km or more
Scattered clouds at a height of 3500 ft
Probability 30% :
Temporary
from 16 at 09 UTC to 16 at 13 UTC
Broken clouds at a height of 3000 ft
Broken clouds at a height of 9000 ft
light rain showers
The information on this site is subject to a disclaimer
Weather : Europe Africa North America South America Asia Australia-Oceania Others
Satellite images 15-day forecastsClimateMarine weather Cyclones Lightning AirportsFAQ Languages Contact Newsletter About